Time;durP1;ratioP1;P1;durP2;ratioP2;P2;SDS_P1;SDS_P2;PMS_P1;PMS_P2;Temp;Humidity;BMP_temperature;BMP_pressure;BME280_temperature;BME280_humidity;BME280_pressure;Samples;Min_cycle;Max_cycle;Signal;HPM_P1;HPM_P2
2022/11/18 00:00:31;;;;;;;32.15;17.60;;;;;;;29.60;72.19;100818.34;5085753;27;69585;-36
2022/11/18 00:03:03;;;;;;;22.30;17.27;;;;;;;29.27;71.78;100753.59;5087068;27;66230;-35
2022/11/18 00:05:34;;;;;;;17.83;15.70;;;;;;;29.68;71.84;100811.91;5083026;27;69390;-35
2022/11/18 00:08:05;;;;;;;29.35;15.82;;;;;;;29.77;72.24;100811.44;5082832;27;66319;-35
2022/11/18 00:10:39;;;;;;;31.00;16.40;;;;;;;29.87;71.93;100826.41;5085005;27;70172;-35
2022/11/18 00:16:03;;;;;;;26.15;15.68;;;;;;;29.99;73.33;100843.59;5086847;27;69900;-35
2022/11/18 00:18:35;;;;;;;27.08;16.48;;;;;;;30.05;73.02;100840.03;5079711;27;65268;-35
2022/11/18 00:21:09;;;;;;;23.85;16.85;;;;;;;29.60;73.18;100764.28;5084185;27;69642;-34
2022/11/18 00:23:41;;;;;;;21.00;16.02;;;;;;;30.10;73.80;100844.81;5082748;27;66464;-35
2022/11/18 00:26:14;;;;;;;32.17;16.45;;;;;;;30.06;73.74;100847.94;5083463;27;70415;-36
2022/11/18 00:28:45;;;;;;;20.75;15.15;;;;;;;30.18;73.80;100848.09;5085955;27;65597;-36
2022/11/18 00:31:16;;;;;;;20.75;15.75;;;;;;;30.20;73.80;100864.94;5084213;27;68861;-36
2022/11/18 00:33:47;;;;;;;22.47;14.53;;;;;;;30.24;73.17;100860.78;5084852;27;66340;-36
2022/11/18 00:36:19;;;;;;;14.15;12.73;;;;;;;30.25;69.82;100862.41;5087154;27;69239;-36
2022/11/18 00:38:50;;;;;;;14.85;13.35;;;;;;;30.28;68.85;100867.44;5090939;27;66605;-37
2022/11/18 00:41:21;;;;;;;13.80;12.47;;;;;;;30.31;69.01;100859.91;5082998;27;70463;-36
2022/11/18 00:43:52;;;;;;;13.20;11.85;;;;;;;30.23;67.97;100842.91;5085069;27;66047;-37
2022/11/18 00:46:23;;;;;;;11.50;10.60;;;;;;;30.37;68.28;100865.28;5079268;27;71595;-35
2022/11/18 00:48:55;;;;;;;12.50;11.30;;;;;;;30.40;67.47;100864.03;5084229;27;66516;-35
2022/11/18 00:51:26;;;;;;;11.40;10.63;;;;;;;30.41;67.51;100876.50;5085469;27;71299;-35
2022/11/18 00:53:58;;;;;;;11.88;10.70;;;;;;;30.45;67.37;100877.72;5093242;27;66590;-34
2022/11/18 00:56:29;;;;;;;12.07;10.98;;;;;;;30.32;66.87;100856.16;5086839;27;69252;-35
2022/11/18 00:59:00;;;;;;;11.63;10.73;;;;;;;30.48;67.07;100885.44;5082158;27;66440;-35
2022/11/18 01:01:32;;;;;;;11.07;10.13;;;;;;;30.50;66.42;100880.59;5086567;27;70093;-35
2022/11/18 01:04:03;;;;;;;10.87;10.10;;;;;;;30.39;66.69;100879.41;5093693;27;66586;-34
2022/11/18 01:06:34;;;;;;;11.15;10.27;;;;;;;30.54;66.73;100895.38;5086713;27;69837;-37
2022/11/18 01:09:06;;;;;;;11.05;10.00;;;;;;;30.56;66.37;100901.38;5080975;27;67034;-37
2022/11/18 01:14:35;;;;;;;10.65;9.77;;;;;;;30.60;65.87;100897.22;5087682;27;65962;-35
2022/11/18 01:17:06;;;;;;;10.13;9.30;;;;;;;30.60;66.20;100902.63;5086354;27;70372;-37
2022/11/18 01:19:38;;;;;;;10.05;9.32;;;;;;;30.61;66.23;100915.09;5081533;27;66386;-37
2022/11/18 01:22:09;;;;;;;;;;;;;;;30.31;67.10;100916.72;5086453;27;69243;-35
2022/11/18 01:24:40;;;;;;;10.23;9.32;;;;;;;30.10;65.65;100831.28;5087046;27;66688;-35
2022/11/18 01:27:11;;;;;;;9.90;9.23;;;;;;;30.66;65.84;100917.16;5080225;27;70329;-35
2022/11/18 01:29:43;;;;;;;9.77;8.87;;;;;;;30.69;65.75;100917.56;5084990;27;66276;-37
2022/11/18 01:32:14;;;;;;;10.50;9.70;;;;;;;30.65;65.40;100919.06;5084416;27;69197;-35
2022/11/18 01:34:53;;;;;;;9.43;8.52;;;;;;;30.73;64.86;100934.22;5083798;27;66390;-36
2022/11/18 01:37:24;;;;;;;9.30;8.70;;;;;;;30.75;64.90;100931.28;5085379;27;70755;-35
2022/11/18 01:39:55;;;;;;;8.97;8.37;;;;;;;30.73;64.97;100924.22;5087771;27;65577;-35
2022/11/18 01:42:27;;;;;;;9.00;8.30;;;;;;;30.77;65.20;100926.47;5090029;27;69086;-35
2022/11/18 01:45:08;;;;;;;9.40;8.53;;;;;;;30.78;65.33;100920.00;5086678;27;65773;-35
2022/11/18 01:48:15;;;;;;;8.77;8.25;;;;;;;30.69;65.06;100912.13;5081753;27;70506;-35
2022/11/18 01:50:53;;;;;;;9.40;8.60;;;;;;;30.38;64.50;100839.06;5085075;27;65448;-36
2022/11/18 01:53:31;;;;;;;9.57;8.32;;;;;;;30.41;64.59;100841.31;5089863;27;69735;-36
2022/11/18 01:56:08;;;;;;;8.52;7.93;;;;;;;30.65;64.68;100886.56;5086324;27;65761;-37
2022/11/18 01:58:48;;;;;;;9.13;8.40;;;;;;;30.89;64.25;100922.84;5087861;27;70945;-35
2022/11/18 02:01:20;;;;;;;8.87;8.07;;;;;;;30.86;64.64;100917.06;5088367;27;65848;-35
2022/11/18 02:03:53;;;;;;;8.07;7.57;;;;;;;30.89;64.30;100922.03;5082294;27;69087;-35
2022/11/18 02:06:24;;;;;;;8.43;7.82;;;;;;;30.92;64.45;100918.88;5081164;27;66366;-36
2022/11/18 02:08:56;;;;;;;9.95;8.68;;;;;;;30.89;67.88;100922.03;5086130;27;69517;-36
2022/11/18 02:14:29;;;;;;;10.00;8.98;;;;;;;30.84;68.84;100906.47;5082748;27;70277;-35
2022/11/18 02:17:38;;;;;;;12.55;9.15;;;;;;;30.78;69.77;100918.13;5086317;27;66362;-35
2022/11/18 02:20:09;;;;;;;14.70;8.32;;;;;;;30.89;69.33;100916.63;5028921;27;70008;-36
2022/11/18 02:22:55;;;;;;;15.35;8.45;;;;;;;30.86;68.59;100914.34;5081517;27;66290;-36
2022/11/18 02:25:57;;;;;;;16.88;8.23;;;;;;;30.88;69.08;100909.56;5083219;27;70116;-35
2022/11/18 02:28:55;;;;;;;8.67;7.67;;;;;;;30.92;69.15;100911.63;5086435;27;65785;-36
2022/11/18 02:31:41;;;;;;;19.45;7.97;;;;;;;30.42;68.84;100824.88;5082807;27;69571;-35
2022/11/18 02:34:22;;;;;;;8.95;7.63;;;;;;;30.88;69.07;100904.13;5090804;27;66687;-36
2022/11/18 02:37:15;;;;;;;8.20;6.70;;;;;;;30.95;68.51;100904.91;5090877;27;70655;-36
2022/11/18 02:40:19;;;;;;;7.43;6.68;;;;;;;30.74;68.83;100873.59;5089277;27;65049;-36
2022/11/18 02:43:24;;;;;;;18.98;7.20;;;;;;;31.00;68.27;100902.38;5083638;27;69421;-35
2022/11/18 02:46:01;;;;;;;7.88;6.45;;;;;;;31.07;67.60;100914.00;5058612;27;67066;-35
2022/11/18 02:48:38;;;;;;;14.07;7.30;;;;;;;30.75;67.52;100839.19;5083909;27;70317;-35
2022/11/18 02:51:11;;;;;;;16.05;6.68;;;;;;;31.13;67.25;100893.31;5091676;27;66403;-36
2022/11/18 02:53:45;;;;;;;8.75;6.60;;;;;;;31.17;67.29;100886.38;5088384;27;69615;-36
2022/11/18 02:56:19;;;;;;;9.90;6.47;;;;;;;30.72;67.53;100814.22;5084159;27;64234;-37
2022/11/18 02:58:50;;;;;;;13.65;6.72;;;;;;;31.21;67.72;100881.38;5086547;27;70190;-35
2022/11/18 03:01:27;;;;;;;7.47;6.35;;;;;;;30.65;68.08;100802.63;5087931;27;66380;-35
2022/11/18 03:03:59;;;;;;;14.68;7.63;;;;;;;31.27;67.82;100891.31;5085699;27;70443;-36
2022/11/18 03:06:36;;;;;;;11.80;7.28;;;;;;;31.27;68.18;100891.31;5093953;27;66185;-37
2022/11/18 03:09:31;;;;;;;7.60;6.80;;;;;;;31.02;68.16;100839.84;5086674;27;70569;-37
2022/11/18 03:12:11;;;;;;;9.68;7.20;;;;;;;31.30;68.13;100885.44;5086384;27;66100;-37
2022/11/18 03:14:59;;;;;;;9.25;6.95;;;;;;;30.79;68.37;100807.94;5086233;27;68965;-36
2022/11/18 03:17:55;;;;;;;8.27;7.55;;;;;;;31.27;67.57;100888.59;5084614;27;66518;-35
2022/11/18 03:20:38;;;;;;;8.70;7.78;;;;;;;30.88;66.95;100803.94;5082802;27;69388;-37
2022/11/18 03:23:22;;;;;;;10.93;7.55;;;;;;;31.41;67.46;100887.44;5087191;27;66442;-35
2022/11/18 03:26:13;;;;;;;12.02;7.88;;;;;;;30.58;67.23;100753.13;5086070;27;69180;-38
2022/11/18 03:29:04;;;;;;;8.77;7.87;;;;;;;30.89;67.08;100798.28;5085165;27;65720;-37
2022/11/18 03:32:10;;;;;;;16.43;8.23;;;;;;;31.29;66.96;100870.25;5086158;27;69607;-37
2022/11/18 03:34:50;;;;;;;10.80;7.65;;;;;;;31.07;67.55;100815.63;5079899;27;65702;-36
2022/11/18 03:37:24;;;;;;;9.18;7.55;;;;;;;31.07;67.85;100800.19;5084693;27;69544;-37
2022/11/18 03:40:09;;;;;;;8.98;7.97;;;;;;;30.62;68.05;100731.81;5087306;27;65652;-35
2022/11/18 03:42:59;;;;;;;11.63;6.95;;;;;;;31.42;68.21;100861.16;5088247;27;69642;-37
2022/11/18 03:46:13;;;;;;;8.82;7.90;;;;;;;31.46;68.13;100857.78;5090223;27;65581;-37
2022/11/18 03:48:51;;;;;;;8.02;7.07;;;;;;;31.02;68.13;100769.41;5015122;28;69340;-36
2022/11/18 03:51:29;;;;;;;12.15;8.02;;;;;;;31.47;67.81;100848.59;5080423;27;65340;-35
2022/11/18 03:54:08;;;;;;;9.75;7.32;;;;;;;31.05;68.26;100772.50;5084690;27;69638;-35
2022/11/18 03:56:47;;;;;;;9.15;7.50;;;;;;;31.43;68.51;100841.97;5084995;27;65708;-35
2022/11/18 03:59:23;;;;;;;10.90;7.70;;;;;;;31.49;68.63;100846.50;5088043;27;70557;-39
2022/11/18 04:02:10;;;;;;;14.45;8.65;;;;;;;31.54;68.10;100860.19;5087787;27;66716;-36
2022/11/18 04:04:44;;;;;;;11.57;7.68;;;;;;;31.55;68.20;100851.00;5091412;27;69007;-35
2022/11/18 04:07:38;;;;;;;8.50;7.68;;;;;;;31.39;68.77;100829.91;5082919;27;66616;-37
2022/11/18 04:10:18;;;;;;;14.32;7.72;;;;;;;31.15;67.90;100764.69;5086188;27;70277;-36
2022/11/18 04:13:18;;;;;;;18.10;8.80;;;;;;;31.55;67.60;100823.06;5083145;27;66636;-36
2022/11/18 04:15:50;;;;;;;10.02;8.48;;;;;;;31.69;66.74;100826.44;5084734;27;70183;-38
2022/11/18 04:18:21;;;;;;;8.18;7.45;;;;;;;31.69;66.62;100812.88;5084500;27;66034;-37
2022/11/18 04:20:52;;;;;;;9.70;8.60;;;;;;;31.77;65.86;100809.88;5079066;27;70398;-38
2022/11/18 04:23:23;;;;;;;;;;;;;;;31.61;66.33;100800.47;5088221;27;65842;-36
2022/11/18 04:25:55;;;;;;;19.05;9.38;;;;;;;31.87;65.63;100798.47;5082993;27;69071;-37
2022/11/18 04:28:27;;;;;;;10.02;8.98;;;;;;;31.88;65.55;100800.97;5086005;27;66410;-36
2022/11/18 04:30:58;;;;;;;18.47;8.77;;;;;;;31.94;65.48;100794.66;5088639;27;70355;-36
2022/11/18 04:33:29;;;;;;;;;;;;;;;31.76;65.53;100792.78;5087491;27;66612;-36
2022/11/18 04:36:00;;;;;;;11.52;9.05;;;;;;;31.94;63.69;100778.38;5081926;27;70381;-35
2022/11/18 04:38:31;;;;;;;10.17;8.97;;;;;;;32.03;63.39;100787.81;5083616;27;65947;-35
2022/11/18 04:41:02;;;;;;;15.43;9.43;;;;;;;32.07;64.32;100788.22;5083760;27;70338;-35
2022/11/18 04:43:33;;;;;;;12.00;8.47;;;;;;;31.81;64.14;100735.09;5085899;27;65657;-35
2022/11/18 04:46:05;;;;;;;14.68;9.48;;;;;;;32.00;63.94;100755.72;5082300;27;70653;-36
2022/11/18 04:48:36;;;;;;;10.80;8.17;;;;;;;32.03;64.06;100757.16;5089205;27;66358;-37
2022/11/18 04:51:07;;;;;;;;;;;;;;;31.92;63.81;100755.22;5084366;27;70082;-36
2022/11/18 04:53:38;;;;;;;8.50;7.70;;;;;;;32.13;64.05;100754.72;5080105;27;66871;-37
2022/11/18 04:56:09;;;;;;;18.63;8.00;;;;;;;32.11;64.64;100740.56;5084591;27;69851;-36
2022/11/18 04:58:41;;;;;;;10.18;7.45;;;;;;;32.10;64.47;100735.38;5084496;27;66535;-35
2022/11/18 05:01:12;;;;;;;8.97;7.17;;;;;;;32.15;62.74;100735.47;5082022;27;69897;-36
2022/11/18 05:03:44;;;;;;;7.78;6.97;;;;;;;32.07;62.04;100728.53;5088505;27;66175;-34
2022/11/18 05:06:19;;;;;;;12.55;6.85;;;;;;;32.04;61.19;100724.38;5084841;27;69842;-35
2022/11/18 05:08:50;;;;;;;10.80;7.00;;;;;;;32.02;59.49;100726.50;5084892;27;66838;-36
2022/11/18 05:14:11;;;;;;;6.07;5.53;;;;;;;31.95;58.19;100705.94;5083675;27;65837;-37
2022/11/18 05:16:43;;;;;;;5.95;5.55;;;;;;;31.93;57.03;100695.34;5083421;27;70538;-34
2022/11/18 05:19:15;;;;;;;6.13;5.53;;;;;;;31.90;56.38;100682.22;5090118;27;66604;-37
2022/11/18 05:21:46;;;;;;;5.72;5.32;;;;;;;31.92;56.24;100687.41;5082718;27;69892;-36
2022/11/18 05:24:18;;;;;;;6.30;5.90;;;;;;;31.90;55.76;100668.66;5087757;27;65598;-36
2022/11/18 05:26:50;;;;;;;7.87;5.40;;;;;;;31.87;54.55;100662.84;5086237;27;69987;-36
2022/11/18 05:29:22;;;;;;;5.32;4.85;;;;;;;31.87;54.31;100658.22;5089832;27;65666;-37
2022/11/18 05:31:54;;;;;;;5.55;5.00;;;;;;;31.84;53.28;100664.13;5088869;27;69325;-35
2022/11/18 05:34:26;;;;;;;4.90;4.60;;;;;;;31.87;53.29;100663.66;5085200;27;65811;-34
2022/11/18 05:36:57;;;;;;;6.40;4.47;;;;;;;31.79;52.41;100650.47;5084410;27;70029;-35
2022/11/18 05:39:28;;;;;;;5.35;4.95;;;;;;;31.78;52.36;100648.78;5081578;27;65282;-37
2022/11/18 05:44:50;;;;;;;5.57;5.10;;;;;;;31.61;51.41;100616.91;5081282;27;65714;-35
2022/11/18 05:47:27;;;;;;;4.53;4.22;;;;;;;31.75;51.12;100632.97;5088048;27;70146;-37
2022/11/18 05:49:58;;;;;;;5.07;4.70;;;;;;;31.68;50.90;100622.25;5086405;27;66296;-36
2022/11/18 05:52:29;;;;;;;4.90;4.50;;;;;;;31.71;50.24;100620.97;5082881;27;70351;-39
2022/11/18 05:55:00;;;;;;;4.47;4.07;;;;;;;31.73;49.91;100624.25;5081300;27;66699;-36
2022/11/18 05:57:31;;;;;;;4.50;4.10;;;;;;;31.63;50.32;100602.31;5086463;27;69172;-35
2022/11/18 06:00:03;;;;;;;4.60;4.23;;;;;;;31.69;49.15;100617.66;5078890;27;66892;-36
2022/11/18 06:02:42;;;;;;;4.93;4.53;;;;;;;31.66;49.11;100607.25;5090050;27;69510;-36
2022/11/18 06:05:14;;;;;;;4.25;3.95;;;;;;;31.69;48.65;100612.22;5083703;27;66475;-36
2022/11/18 06:07:45;;;;;;;;;;;;;;;31.44;49.11;100596.94;5084187;27;70230;-35
2022/11/18 06:10:21;;;;;;;4.45;4.05;;;;;;;31.30;48.15;100527.69;5084661;27;66426;-35
2022/11/18 06:12:56;;;;;;;4.50;4.15;;;;;;;31.66;47.74;100574.72;5082038;27;70465;-35
2022/11/18 06:15:37;;;;;;;7.80;3.95;;;;;;;31.52;47.54;100541.56;5090636;27;65542;-36
2022/11/18 06:18:20;;;;;;;6.30;3.97;;;;;;;31.51;47.52;100540.75;5086300;27;69465;-35
2022/11/18 06:20:55;;;;;;;3.95;3.65;;;;;;;31.72;47.23;100557.53;5087695;27;66917;-35
2022/11/18 06:23:28;;;;;;;4.72;4.30;;;;;;;31.22;46.98;100471.13;5081728;27;70042;-35
2022/11/18 06:26:00;;;;;;;4.35;3.85;;;;;;;31.68;46.81;100540.06;5084633;27;66607;-35
2022/11/18 06:28:31;;;;;;;7.45;4.10;;;;;;;31.69;46.77;100536.28;5083188;27;69338;-35
2022/11/18 06:31:02;;;;;;;3.97;3.63;;;;;;;31.39;46.40;100488.38;5082312;27;65806;-36
2022/11/18 06:33:34;;;;;;;4.13;3.75;;;;;;;31.68;46.13;100529.19;5083210;27;69587;-35
2022/11/18 06:36:05;;;;;;;3.70;3.40;;;;;;;31.69;46.21;100530.88;5084713;27;66257;-35
2022/11/18 06:38:36;;;;;;;;;;;;;;;31.45;46.31;100535.41;5084678;27;70723;-36
2022/11/18 06:41:08;;;;;;;3.38;3.15;;;;;;;31.63;46.19;100527.22;5087162;27;66561;-36
2022/11/18 06:43:42;;;;;;;5.68;3.60;;;;;;;31.58;46.07;100513.53;5070589;27;68967;-35
2022/11/18 06:49:06;;;;;;;4.40;3.90;;;;;;;31.70;45.54;100510.81;5089040;27;70210;-36
2022/11/18 06:51:38;;;;;;;8.63;3.70;;;;;;;31.73;45.99;100504.91;5094515;27;64998;-35
2022/11/18 06:54:09;;;;;;;5.78;3.72;;;;;;;31.69;45.83;100504.56;5084833;27;70177;-37
2022/11/18 06:56:40;;;;;;;6.40;3.80;;;;;;;31.72;45.12;100506.00;5082806;27;66542;-35
2022/11/18 06:59:11;;;;;;;3.87;3.57;;;;;;;31.72;45.45;100498.69;5084533;27;70040;-35
2022/11/18 07:01:42;;;;;;;6.10;3.20;;;;;;;31.75;45.10;100486.53;5088161;27;65650;-36
2022/11/18 07:04:13;;;;;;;3.92;3.63;;;;;;;31.72;44.64;100487.00;5088342;27;69243;-37
2022/11/18 07:06:45;;;;;;;3.53;3.33;;;;;;;31.75;45.04;100491.97;5084650;27;66697;-35
2022/11/18 07:09:17;;;;;;;5.70;3.77;;;;;;;31.71;44.71;100486.19;5090054;27;70491;-37
2022/11/18 07:11:48;;;;;;;;;;;;;;;31.51;44.81;100491.97;5088218;27;66098;-35
2022/11/18 07:14:19;;;;;;;3.95;3.65;;;;;;;31.71;44.75;100479.94;5091087;27;69429;-35
2022/11/18 07:16:50;;;;;;;5.20;4.40;;;;;;;31.75;44.82;100475.69;5088520;27;65358;-34
2022/11/18 07:19:21;;;;;;;4.43;4.03;;;;;;;31.74;44.53;100474.06;5083385;27;70339;-37
2022/11/18 07:21:53;;;;;;;6.57;3.85;;;;;;;31.75;44.50;100471.09;5083319;27;65712;-34
2022/11/18 07:24:24;;;;;;;;;;;;;;;31.52;45.00;100477.34;5085350;27;70688;-36
2022/11/18 07:26:56;;;;;;;4.50;4.10;;;;;;;31.74;44.63;100463.19;5091315;27;66321;-35
2022/11/18 07:29:27;;;;;;;6.40;3.93;;;;;;;31.74;44.69;100472.16;5086267;27;69642;-36
2022/11/18 07:31:58;;;;;;;9.83;4.17;;;;;;;31.67;44.73;100460.59;5082558;27;65244;-35
2022/11/18 07:34:30;;;;;;;4.43;4.13;;;;;;;31.71;44.36;100458.25;5085546;27;69876;-36
2022/11/18 07:37:01;;;;;;;4.60;4.20;;;;;;;31.71;44.57;100450.13;5089298;27;66962;-36
2022/11/18 07:39:32;;;;;;;7.70;4.05;;;;;;;31.73;44.11;100456.13;5085522;27;69980;-36
2022/11/18 07:42:04;;;;;;;4.32;4.03;;;;;;;31.74;43.87;100468.63;5085838;27;66019;-35
2022/11/18 07:44:35;;;;;;;4.80;4.50;;;;;;;31.70;44.24;100467.44;5079286;27;70421;-37
2022/11/18 07:47:06;;;;;;;6.67;4.30;;;;;;;31.37;44.23;100417.31;5081057;27;66345;-37
2022/11/18 07:49:37;;;;;;;4.13;3.83;;;;;;;31.61;44.16;100464.25;5082912;27;69376;-36
2022/11/18 07:52:08;;;;;;;6.78;5.18;;;;;;;31.72;44.40;100484.31;5090066;27;66243;-37
2022/11/18 07:54:39;;;;;;;6.43;5.23;;;;;;;31.64;44.08;100457.53;5086747;27;69485;-37
2022/11/18 07:57:10;;;;;;;;;;;;;;;31.44;44.43;100469.53;5081526;27;65352;-36
2022/11/18 07:59:41;;;;;;;9.05;5.03;;;;;;;31.58;44.40;100460.13;5087420;27;69368;-36
2022/11/18 08:02:13;;;;;;;6.20;5.33;;;;;;;31.65;44.57;100475.44;5084174;27;65470;-35
2022/11/18 08:04:44;;;;;;;4.78;4.38;;;;;;;31.61;44.44;100466.97;5088099;27;70095;-38
2022/11/18 08:07:15;;;;;;;6.90;5.00;;;;;;;31.27;44.58;100415.19;5084324;27;66279;-37
2022/11/18 08:09:46;;;;;;;6.43;5.27;;;;;;;31.60;44.28;100468.84;5088380;27;70051;-37
2022/11/18 08:12:18;;;;;;;7.20;5.20;;;;;;;31.59;44.35;100478.06;5065582;27;65827;-38
2022/11/18 08:14:49;;;;;;;5.67;5.23;;;;;;;31.60;44.71;100490.53;5084642;27;69710;-38
2022/11/18 08:17:20;;;;;;;7.65;5.03;;;;;;;31.53;44.02;100489.81;5085779;27;65283;-36
2022/11/18 08:19:51;;;;;;;6.87;5.80;;;;;;;31.56;44.30;100486.63;5089401;27;70406;-38
2022/11/18 08:22:22;;;;;;;6.07;5.07;;;;;;;31.44;44.41;100464.13;5086906;27;65932;-36
2022/11/18 08:24:54;;;;;;;8.55;5.10;;;;;;;31.53;44.55;100473.56;5084443;27;69432;-36
2022/11/18 08:27:25;;;;;;;6.90;6.23;;;;;;;31.53;45.86;100468.13;5088700;27;65819;-39
2022/11/18 08:29:56;;;;;;;8.57;6.00;;;;;;;31.24;45.29;100428.38;5083293;27;69412;-37
2022/11/18 08:32:27;;;;;;;6.70;5.97;;;;;;;31.48;45.45;100480.75;5085714;27;66889;-36
2022/11/18 08:34:58;;;;;;;6.77;6.10;;;;;;;31.41;45.49;100480.84;5083680;27;69259;-39
2022/11/18 08:37:34;;;;;;;7.22;6.03;;;;;;;31.51;45.27;100504.66;5083363;27;66647;-37
2022/11/18 08:40:05;;;;;;;;;;;;;;;31.25;45.34;100514.00;5086231;27;69782;-37
2022/11/18 08:42:37;;;;;;;8.98;5.93;;;;;;;31.44;45.14;100518.34;5084006;27;65703;-38
2022/11/18 08:45:09;;;;;;;7.57;6.10;;;;;;;31.45;44.71;100519.97;5088511;27;70313;-37
2022/11/18 08:47:40;;;;;;;6.05;5.55;;;;;;;31.38;44.73;100520.09;5084724;27;66324;-40
2022/11/18 08:50:11;;;;;;;8.55;6.38;;;;;;;31.40;44.85;100530.72;5089972;27;69320;-39
2022/11/18 08:52:43;;;;;;;6.60;5.93;;;;;;;31.37;45.15;100533.88;5084605;27;65972;-38
2022/11/18 08:55:15;;;;;;;6.78;6.07;;;;;;;31.25;45.35;100514.00;5084193;27;70240;-41
2022/11/18 08:57:46;;;;;;;7.77;5.93;;;;;;;31.30;44.83;100527.69;5085810;27;65640;-37
2022/11/18 09:00:18;;;;;;;8.10;6.32;;;;;;;31.37;44.65;100539.28;5086445;27;69692;-36
2022/11/18 09:02:50;;;;;;;6.50;5.88;;;;;;;31.36;45.31;100543.06;5083024;27;66469;-38
2022/11/18 09:05:21;;;;;;;9.40;6.03;;;;;;;31.25;45.30;100531.09;5088487;27;69255;-37
2022/11/18 09:07:53;;;;;;;6.90;5.90;;;;;;;31.31;44.85;100548.31;5081364;27;66741;-38
2022/11/18 09:10:24;;;;;;;7.17;6.60;;;;;;;31.31;44.75;100551.03;5081435;27;69536;-36
2022/11/18 09:12:56;;;;;;;11.05;6.22;;;;;;;31.29;45.26;100558.59;5085740;27;65954;-37
2022/11/18 09:15:46;;;;;;;6.32;5.75;;;;;;;31.31;44.79;100562.69;5085193;27;69309;-36
2022/11/18 09:18:17;;;;;;;7.50;5.97;;;;;;;31.29;44.90;100558.59;5089891;27;66346;-36
2022/11/18 09:21:02;;;;;;;7.77;6.20;;;;;;;31.28;44.99;100563.16;5084856;27;70120;-36
2022/11/18 09:23:38;;;;;;;8.38;6.10;;;;;;;31.01;45.01;100527.50;5084166;27;66422;-35
2022/11/18 09:26:15;;;;;;;9.52;5.85;;;;;;;31.28;44.99;100579.41;5084689;27;70355;-36
2022/11/18 09:28:47;;;;;;;6.25;5.43;;;;;;;31.22;45.50;100574.09;5101184;27;65616;-36
2022/11/18 09:31:18;;;;;;;6.22;5.18;;;;;;;31.28;45.20;100590.25;5088526;27;70067;-36
2022/11/18 09:33:49;;;;;;;6.30;5.80;;;;;;;31.21;45.59;100575.16;5086079;27;66374;-36
2022/11/18 09:36:23;;;;;;;6.22;5.63;;;;;;;31.27;44.85;100595.91;5080512;27;70357;-36
2022/11/18 09:38:55;;;;;;;5.50;5.00;;;;;;;31.16;45.03;100568.53;5082567;27;66170;-36
2022/11/18 09:41:39;;;;;;;5.78;5.28;;;;;;;31.26;44.86;100594.25;5080406;27;69243;-36
2022/11/18 09:44:33;;;;;;;5.18;4.68;;;;;;;31.22;44.70;100598.47;5080766;27;66694;-35
2022/11/18 09:47:10;;;;;;;5.20;4.78;;;;;;;31.22;44.76;100601.19;5084889;27;69327;-36
2022/11/18 09:49:44;;;;;;;6.00;4.97;;;;;;;31.22;44.65;100606.63;5080630;27;66538;-36
2022/11/18 09:52:32;;;;;;;11.82;5.35;;;;;;;30.99;45.28;100570.25;5083308;27;70445;-36
2022/11/18 09:55:16;;;;;;;4.90;4.45;;;;;;;30.46;45.55;100479.66;5086858;27;66708;-36
2022/11/18 09:57:51;;;;;;;6.15;4.93;;;;;;;31.20;45.30;100608.72;5083382;27;69870;-37
2022/11/18 10:00:29;;;;;;;7.45;4.93;;;;;;;31.01;45.10;100595.22;5079407;27;66432;-37
2022/11/18 10:03:15;;;;;;;6.28;5.00;;;;;;;30.32;45.31;100482.75;5084606;27;69735;-35
2022/11/18 10:05:56;;;;;;;8.90;4.93;;;;;;;31.07;45.16;100626.81;5089581;27;66085;-37
2022/11/18 10:08:32;;;;;;;6.82;4.50;;;;;;;30.64;44.92;100557.28;5078745;27;70272;-37
2022/11/18 10:11:09;;;;;;;6.82;5.10;;;;;;;31.08;44.59;100628.44;5083349;27;66044;-35
2022/11/18 10:14:06;;;;;;;13.82;5.00;;;;;;;31.03;44.73;100628.31;5092108;27;70619;-36
2022/11/18 10:16:49;;;;;;;5.35;4.60;;;;;;;30.97;44.16;100641.94;5085958;27;66022;-36
2022/11/18 10:19:37;;;;;;;7.53;4.45;;;;;;;30.42;43.85;100562.34;5085305;27;70362;-37
2022/11/18 10:22:39;;;;;;;12.30;5.25;;;;;;;30.89;46.76;100656.59;5084692;27;65912;-37
2022/11/18 10:25:15;;;;;;;13.00;5.13;;;;;;;30.94;48.74;100648.63;5082802;27;69456;-36
2022/11/18 10:27:49;;;;;;;6.88;4.70;;;;;;;30.50;49.85;100577.44;5080258;27;66129;-35
2022/11/18 10:30:23;;;;;;;5.78;4.55;;;;;;;30.84;51.00;100632.94;5086314;27;70140;-36
2022/11/18 10:33:18;;;;;;;6.30;4.78;;;;;;;30.87;51.53;100631.63;5086700;27;65966;-36
2022/11/18 10:35:50;;;;;;;8.00;5.13;;;;;;;31.07;58.66;100662.03;5084722;27;69801;-36
2022/11/18 10:38:22;;;;;;;15.23;5.70;;;;;;;30.76;61.30;100603.41;5081413;27;66187;-37
2022/11/18 10:41:08;;;;;;;13.63;5.82;;;;;;;31.20;63.61;100657.50;5081895;27;70101;-37
2022/11/18 10:43:53;;;;;;;16.85;6.03;;;;;;;31.23;65.10;100668.72;5085260;27;65812;-36
2022/11/18 10:46:32;;;;;;;11.73;5.90;;;;;;;30.76;65.21;100587.16;5079636;27;70471;-37
2022/11/18 10:49:10;;;;;;;13.32;6.22;;;;;;;31.33;66.54;100662.75;5080651;27;66730;-37
2022/11/18 10:51:45;;;;;;;21.60;6.28;;;;;;;31.35;67.24;100660.63;5092588;27;70361;-37
2022/11/18 10:54:22;;;;;;;27.08;6.45;;;;;;;31.26;67.00;100635.75;5093210;27;66109;-38
2022/11/18 10:56:53;;;;;;;20.38;6.90;;;;;;;31.40;69.14;100660.81;5089337;27;69936;-37
2022/11/18 10:59:32;;;;;;;21.00;6.10;;;;;;;30.97;68.79;100585.88;5086415;27;66850;-38
2022/11/18 11:02:14;;;;;;;39.88;7.55;;;;;;;31.49;68.51;100667.56;5073860;27;69842;-37
2022/11/18 11:04:46;;;;;;;;;;;;;;;31.12;70.26;100640.50;5087876;27;66538;-45
2022/11/18 11:07:32;;;;;;;105.97;9.67;;;;;;;31.03;69.65;100593.09;5089314;27;69663;-39
2022/11/18 11:10:09;;;;;;;54.05;7.68;;;;;;;31.58;70.46;100665.34;5088009;27;66229;-41
2022/11/18 11:12:48;;;;;;;50.80;8.10;;;;;;;31.61;71.00;100667.59;5087802;27;70028;-39
2022/11/18 11:15:51;;;;;;;30.13;7.20;;;;;;;31.61;71.98;100665.72;5085222;27;66365;-38
2022/11/18 11:18:41;;;;;;;30.27;6.72;;;;;;;31.52;71.21;100661.69;5080833;27;69783;-40
2022/11/18 11:21:14;;;;;;;16.48;6.15;;;;;;;31.66;71.79;100683.19;5086835;27;65779;-39
2022/11/18 11:23:46;;;;;;;21.77;5.85;;;;;;;31.67;72.17;100679.41;5082465;27;70420;-37
2022/11/18 11:26:25;;;;;;;25.20;6.40;;;;;;;31.68;72.07;100683.75;5085584;27;66705;-37
2022/11/18 11:29:22;;;;;;;12.75;6.13;;;;;;;31.68;71.17;100689.19;5089701;27;70139;-40
2022/11/18 11:32:14;;;;;;;12.45;6.03;;;;;;;31.66;71.23;100692.16;5089625;27;65988;-39
2022/11/18 11:35:14;;;;;;;18.02;6.13;;;;;;;31.58;71.69;100698.72;5084910;27;70650;-36
2022/11/18 11:37:57;;;;;;;8.13;5.75;;;;;;;31.63;71.67;100721.63;5091006;27;66582;-37
2022/11/18 11:41:00;;;;;;;16.00;6.00;;;;;;;31.57;71.50;100717.94;5084705;27;69202;-39
2022/11/18 11:43:35;;;;;;;8.82;5.30;;;;;;;31.15;71.50;100645.47;5080133;27;66283;-36
2022/11/18 11:46:27;;;;;;;18.65;5.85;;;;;;;31.56;71.80;100716.25;5081947;27;70153;-36
2022/11/18 11:49:04;;;;;;;;;;;;;;;31.39;72.85;100721.47;5086539;27;65636;-37
2022/11/18 11:51:42;;;;;;;7.00;5.57;;;;;;;31.37;72.04;100700.03;5082341;27;69913;-37
2022/11/18 11:54:20;;;;;;;19.10;6.38;;;;;;;31.46;71.84;100710.56;5086478;27;65671;-36
2022/11/18 11:57:13;;;;;;;14.68;6.18;;;;;;;31.56;72.45;100736.06;5086739;27;69790;-37
2022/11/18 11:59:51;;;;;;;9.40;5.50;;;;;;;31.61;72.54;100736.22;5084893;27;65698;-36
2022/11/18 12:02:51;;;;;;;9.57;6.35;;;;;;;31.55;72.70;100747.16;5086809;27;69329;-38
2022/11/18 12:05:42;;;;;;;7.90;5.40;;;;;;;31.54;72.42;100749.03;5084312;27;66274;-37
2022/11/18 12:08:19;;;;;;;8.18;5.75;;;;;;;31.38;72.23;100727.97;5090150;27;70856;-39
2022/11/18 12:10:56;;;;;;;9.60;5.82;;;;;;;31.52;72.55;100748.44;5086721;27;65702;-37
2022/11/18 12:13:57;;;;;;;9.20;5.35;;;;;;;31.06;72.27;100697.47;5083066;27;69541;-38
2022/11/18 12:16:46;;;;;;;8.27;5.13;;;;;;;31.56;72.57;100776.72;5084406;27;66331;-39
2022/11/18 12:19:22;;;;;;;13.95;6.05;;;;;;;31.55;73.15;100772.38;5091228;27;70036;-37
2022/11/18 12:22:02;;;;;;;12.45;6.88;;;;;;;31.58;74.19;100784.66;5082282;27;66006;-41
2022/11/18 12:24:43;;;;;;;7.32;6.22;;;;;;;31.47;74.28;100761.00;5085400;27;70222;-37